createdAt,value
2022-09-30T00:00:52.756Z,13.50
2022-09-30T00:03:21.723Z,13.70
2022-09-30T00:05:56.802Z,13.90
2022-09-30T00:08:25.339Z,13.70
2022-09-30T00:11:04.223Z,13.60
2022-09-30T00:13:32.679Z,13.60
2022-09-30T00:16:00.822Z,13.70
2022-09-30T00:18:29.015Z,13.80
2022-09-30T00:20:58.539Z,14.00
2022-09-30T00:23:26.836Z,13.90
2022-09-30T00:25:58.968Z,13.80
2022-09-30T00:28:27.197Z,14.10
2022-09-30T00:30:55.286Z,14.10
2022-09-30T00:33:23.389Z,13.80
2022-09-30T00:35:51.441Z,13.40
2022-09-30T00:38:20.931Z,13.70
2022-09-30T00:40:49.241Z,13.70
2022-09-30T00:43:18.325Z,14.00
2022-09-30T00:45:49.725Z,14.00
2022-09-30T00:48:19.077Z,14.10
2022-09-30T00:50:47.464Z,13.70
2022-09-30T00:53:17.780Z,13.40
2022-09-30T00:55:53.079Z,13.30
2022-09-30T00:58:24.192Z,13.10
2022-09-30T01:00:53.112Z,12.90
2022-09-30T01:03:22.802Z,12.70
2022-09-30T01:05:51.003Z,12.70
2022-09-30T01:08:19.437Z,13.20
2022-09-30T01:10:47.626Z,13.30
2022-09-30T01:13:17.993Z,12.70
2022-09-30T01:16:07.158Z,12.60
2022-09-30T01:18:41.879Z,12.80
2022-09-30T01:21:41.146Z,12.50
2022-09-30T01:24:33.737Z,12.70
2022-09-30T01:27:17.487Z,12.70
2022-09-30T01:30:15.485Z,12.30
2022-09-30T01:32:55.261Z,12.40
2022-09-30T01:35:26.678Z,12.30
2022-09-30T01:37:59.575Z,12.40
2022-09-30T01:40:31.089Z,12.20
2022-09-30T01:43:11.148Z,12.20
2022-09-30T01:45:42.209Z,12.30
2022-09-30T01:48:14.950Z,12.70
2022-09-30T01:50:46.374Z,12.40
2022-09-30T01:53:17.709Z,12.10
2022-09-30T01:55:48.552Z,12.10
2022-09-30T01:58:20.292Z,12.00
2022-09-30T02:00:49.977Z,12.00
2022-09-30T02:03:22.367Z,12.20
2022-09-30T02:05:52.201Z,12.20
2022-09-30T02:08:22.591Z,12.20
2022-09-30T02:10:56.394Z,11.80
2022-09-30T02:13:27.036Z,12.20
2022-09-30T02:15:56.997Z,12.10
2022-09-30T02:18:29.394Z,12.10
2022-09-30T02:21:00.406Z,12.40
2022-09-30T02:23:29.578Z,12.60
2022-09-30T02:26:06.038Z,12.30
2022-09-30T02:28:34.210Z,12.60
2022-09-30T02:31:02.853Z,12.80
2022-09-30T02:33:33.595Z,12.50
2022-09-30T02:36:06.051Z,12.50
2022-09-30T02:38:37.611Z,12.40
2022-09-30T02:41:07.322Z,12.70
2022-09-30T02:43:35.418Z,12.90
2022-09-30T02:46:06.833Z,12.50
2022-09-30T02:48:39.823Z,11.80
2022-09-30T02:51:11.281Z,12.20
2022-09-30T02:53:40.975Z,12.20
2022-09-30T02:56:16.349Z,12.70
2022-09-30T02:58:44.481Z,12.30
2022-09-30T03:01:13.569Z,11.80
2022-09-30T03:03:44.385Z,12.20
2022-09-30T03:06:12.438Z,12.20
2022-09-30T03:08:40.567Z,12.20
2022-09-30T03:11:08.630Z,11.70
2022-09-30T03:14:03.639Z,11.70
2022-09-30T03:16:38.993Z,11.90
2022-09-30T03:19:20.568Z,12.00
2022-09-30T03:21:56.933Z,11.90
2022-09-30T03:24:35.529Z,11.70
2022-09-30T03:27:10.038Z,11.70
2022-09-30T03:29:42.538Z,11.90
2022-09-30T03:32:15.518Z,12.00
2022-09-30T03:34:52.962Z,12.20
2022-09-30T03:37:25.646Z,12.00
2022-09-30T03:39:56.326Z,11.90
2022-09-30T03:42:27.164Z,11.60
2022-09-30T03:44:59.073Z,11.30
2022-09-30T03:47:27.113Z,11.50
2022-09-30T03:50:00.145Z,11.70
2022-09-30T03:52:28.371Z,12.00
2022-09-30T03:54:58.701Z,11.70
2022-09-30T03:57:28.923Z,11.70
2022-09-30T03:59:57.580Z,11.30
2022-09-30T04:02:25.696Z,11.30
2022-09-30T04:04:53.804Z,11.30
2022-09-30T04:07:23.210Z,11.60
2022-09-30T04:09:51.362Z,11.60
2022-09-30T04:12:19.483Z,11.80
2022-09-30T04:14:47.525Z,11.70
2022-09-30T04:17:15.550Z,11.70
2022-09-30T04:19:43.594Z,11.70
2022-09-30T04:22:11.637Z,11.80
2022-09-30T04:24:41.071Z,11.90
2022-09-30T04:27:09.129Z,11.70
2022-09-30T04:29:37.195Z,11.50
2022-09-30T04:32:05.229Z,11.70
2022-09-30T04:34:33.287Z,11.90
2022-09-30T04:37:01.415Z,11.90
2022-09-30T04:39:29.527Z,11.80
2022-09-30T04:41:59.054Z,11.90
2022-09-30T04:44:27.532Z,11.60
2022-09-30T04:46:55.575Z,11.50
2022-09-30T04:49:24.169Z,11.40
2022-09-30T04:51:52.364Z,11.50
2022-09-30T04:54:20.437Z,11.70
2022-09-30T04:56:48.481Z,11.60
2022-09-30T04:59:17.992Z,11.90
2022-09-30T05:01:46.140Z,11.80
2022-09-30T05:04:14.220Z,11.70
2022-09-30T05:06:42.675Z,11.70
2022-09-30T05:09:10.817Z,11.20
2022-09-30T05:11:41.611Z,11.10
2022-09-30T05:14:10.032Z,11.10
2022-09-30T05:16:39.489Z,11.20
2022-09-30T05:19:07.713Z,11.60
2022-09-30T05:21:35.781Z,11.30
2022-09-30T05:24:03.867Z,10.70
2022-09-30T05:26:33.017Z,10.80
2022-09-30T05:29:01.133Z,10.70
2022-09-30T05:31:29.277Z,10.80
2022-09-30T05:33:58.850Z,10.80
2022-09-30T05:36:26.969Z,10.50
2022-09-30T05:38:55.179Z,10.40
2022-09-30T05:41:24.465Z,10.40
2022-09-30T05:43:52.574Z,10.40
2022-09-30T05:46:21.020Z,10.50
2022-09-30T05:48:49.138Z,10.50
2022-09-30T05:51:18.558Z,10.70
2022-09-30T05:53:46.643Z,10.70
2022-09-30T05:56:14.871Z,10.70
2022-09-30T05:58:43.029Z,11.10
2022-09-30T06:01:14.101Z,11.50
2022-09-30T06:03:42.994Z,11.30
2022-09-30T06:06:11.225Z,10.80
2022-09-30T06:08:41.387Z,10.90
2022-09-30T06:11:12.351Z,11.20
2022-09-30T06:13:40.834Z,11.30
2022-09-30T06:16:09.294Z,11.70
2022-09-30T06:18:39.162Z,12.00
2022-09-30T06:21:07.371Z,11.80
2022-09-30T06:23:36.588Z,11.90
2022-09-30T06:26:07.058Z,11.90
2022-09-30T06:28:35.666Z,11.80
2022-09-30T06:31:03.819Z,12.20
2022-09-30T06:33:32.034Z,12.20
2022-09-30T06:36:04.255Z,12.50
2022-09-30T06:38:32.573Z,12.20
2022-09-30T06:41:00.896Z,12.60
2022-09-30T06:43:30.521Z,12.70
2022-09-30T06:46:09.094Z,12.60
2022-09-30T06:48:43.420Z,12.70
2022-09-30T06:51:11.462Z,13.70
2022-09-30T06:53:40.264Z,14.30
2022-09-30T06:56:08.497Z,13.80
2022-09-30T06:58:37.954Z,13.30
2022-09-30T07:01:07.027Z,13.30
2022-09-30T07:03:36.164Z,13.30
2022-09-30T07:06:05.437Z,13.30
2022-09-30T07:08:33.964Z,13.30
2022-09-30T07:11:02.446Z,13.60
2022-09-30T07:13:30.552Z,14.40
2022-09-30T07:16:00.020Z,14.70
2022-09-30T07:18:28.823Z,14.90
2022-09-30T07:20:57.342Z,14.90
2022-09-30T07:23:27.185Z,14.10
2022-09-30T07:25:56.817Z,15.10
2022-09-30T07:28:27.978Z,16.80
2022-09-30T07:31:13.775Z,16.60
2022-09-30T07:33:47.789Z,15.40
2022-09-30T07:36:18.718Z,15.50
2022-09-30T07:38:47.682Z,16.00
2022-09-30T07:41:16.675Z,16.80
2022-09-30T07:43:45.615Z,17.30
2022-09-30T07:46:15.739Z,16.20
2022-09-30T07:48:47.551Z,15.60
2022-09-30T07:51:18.177Z,15.60
2022-09-30T07:53:47.558Z,15.70
2022-09-30T07:56:15.787Z,15.50
2022-09-30T07:58:43.955Z,15.30
2022-09-30T08:01:12.120Z,14.90
2022-09-30T08:03:42.032Z,14.80
2022-09-30T08:06:11.330Z,15.20
2022-09-30T08:08:41.308Z,15.40
2022-09-30T08:11:09.370Z,15.20
2022-09-30T08:13:37.499Z,15.00
2022-09-30T08:16:05.667Z,15.20
2022-09-30T08:18:33.809Z,14.80
2022-09-30T08:21:04.347Z,15.30
2022-09-30T08:23:32.566Z,15.40
2022-09-30T08:26:05.895Z,15.70
2022-09-30T08:28:34.058Z,15.00
2022-09-30T08:31:06.646Z,15.10
2022-09-30T08:33:34.834Z,15.30
2022-09-30T08:36:04.671Z,15.40
2022-09-30T08:38:32.733Z,15.20
2022-09-30T08:41:13.190Z,15.60
2022-09-30T08:43:44.936Z,15.70
2022-09-30T08:46:16.238Z,15.40
2022-09-30T08:48:49.553Z,15.60
2022-09-30T08:51:29.314Z,15.70
2022-09-30T08:53:58.456Z,15.30
2022-09-30T08:56:29.148Z,15.70
2022-09-30T08:58:58.464Z,15.40
2022-09-30T09:01:30.357Z,15.50
2022-09-30T09:03:58.705Z,15.70
2022-09-30T09:06:29.477Z,16.00
2022-09-30T09:09:32.994Z,16.00
2022-09-30T09:12:07.386Z,15.80
2022-09-30T09:14:42.203Z,15.80
2022-09-30T09:17:17.039Z,15.70
2022-09-30T09:19:49.063Z,15.80
2022-09-30T09:22:20.103Z,15.70
2022-09-30T09:24:53.143Z,15.80
2022-09-30T09:27:24.923Z,15.80
2022-09-30T09:30:01.594Z,15.80
2022-09-30T09:32:30.418Z,16.10
2022-09-30T09:35:00.707Z,16.10
2022-09-30T09:37:49.041Z,16.20
2022-09-30T09:40:19.355Z,16.00
2022-09-30T09:43:10.176Z,16.20
2022-09-30T09:45:40.037Z,16.60
2022-09-30T09:48:12.329Z,16.70
2022-09-30T09:50:43.387Z,16.70
2022-09-30T09:53:40.995Z,17.20
2022-09-30T09:56:18.698Z,17.10
2022-09-30T09:59:10.289Z,16.90
2022-09-30T10:01:39.871Z,17.30
2022-09-30T10:04:15.786Z,17.50
2022-09-30T10:06:44.498Z,17.40
2022-09-30T10:09:24.406Z,17.70
2022-09-30T10:11:52.606Z,18.30
2022-09-30T10:14:22.625Z,18.50
2022-09-30T10:16:50.738Z,18.60
2022-09-30T10:19:21.177Z,18.80
2022-09-30T10:21:51.788Z,18.70
2022-09-30T10:24:28.682Z,19.10
2022-09-30T10:26:56.889Z,19.30
2022-09-30T10:29:34.493Z,19.40
2022-09-30T10:32:03.221Z,20.20
2022-09-30T10:34:31.839Z,20.50
2022-09-30T10:37:02.225Z,21.20
2022-09-30T10:39:31.155Z,22.10
2022-09-30T10:42:02.705Z,21.70
2022-09-30T10:44:32.188Z,21.20
2022-09-30T10:47:02.563Z,21.30
2022-09-30T10:49:32.010Z,20.40
2022-09-30T10:52:00.783Z,20.80
2022-09-30T10:54:47.415Z,21.70
2022-09-30T10:57:16.817Z,21.60
2022-09-30T10:59:46.420Z,21.30
2022-09-30T11:02:36.045Z,21.30
2022-09-30T11:05:09.031Z,21.30
2022-09-30T11:07:40.547Z,20.80
2022-09-30T11:10:10.604Z,20.70
2022-09-30T11:12:42.491Z,20.90
2022-09-30T11:15:15.502Z,21.10
2022-09-30T11:17:46.025Z,21.20
2022-09-30T11:20:18.700Z,21.40
2022-09-30T11:22:50.378Z,22.10
2022-09-30T11:25:20.967Z,22.50
2022-09-30T11:28:10.560Z,22.50
2022-09-30T11:30:41.865Z,22.40
2022-09-30T11:33:21.502Z,21.60
2022-09-30T11:35:54.830Z,22.50
2022-09-30T11:38:35.274Z,22.50
2022-09-30T11:41:05.643Z,22.10
2022-09-30T11:43:37.963Z,22.00
2022-09-30T11:46:39.117Z,22.30
2022-09-30T11:49:25.677Z,22.30
2022-09-30T11:51:57.474Z,22.30
2022-09-30T11:54:32.531Z,22.40
2022-09-30T11:57:03.348Z,22.50
2022-09-30T11:59:34.863Z,23.00
2022-09-30T12:02:04.279Z,22.00
2022-09-30T12:04:36.168Z,22.20
2022-09-30T12:07:07.104Z,22.70
2022-09-30T12:09:38.434Z,23.00
2022-09-30T12:12:12.463Z,22.80
2022-09-30T12:14:45.559Z,22.70
2022-09-30T12:17:18.478Z,22.80
2022-09-30T12:19:49.451Z,22.40
2022-09-30T12:22:19.226Z,22.10
2022-09-30T12:24:47.801Z,22.00
2022-09-30T12:27:21.465Z,22.10
2022-09-30T12:30:14.853Z,22.10
2022-09-30T12:33:13.346Z,21.90
2022-09-30T12:35:51.991Z,21.90
2022-09-30T12:38:40.180Z,22.00
2022-09-30T12:41:16.413Z,22.30
2022-09-30T12:44:07.976Z,21.90
2022-09-30T12:47:04.703Z,21.60
2022-09-30T12:49:32.622Z,21.00
2022-09-30T12:52:06.845Z,21.20
2022-09-30T12:54:35.967Z,21.70
2022-09-30T12:57:09.020Z,21.90
2022-09-30T12:59:38.192Z,22.00
2022-09-30T13:02:07.154Z,22.00
2022-09-30T13:04:36.655Z,22.80
2022-09-30T13:07:24.294Z,20.80
2022-09-30T13:10:28.907Z,20.80
2022-09-30T13:13:23.909Z,19.40
2022-09-30T13:15:52.069Z,20.40
2022-09-30T13:18:57.386Z,21.10
2022-09-30T13:21:26.052Z,21.80
2022-09-30T13:23:56.227Z,21.90
2022-09-30T13:26:34.674Z,21.60
2022-09-30T13:29:28.566Z,21.20
2022-09-30T13:32:10.544Z,20.70
2022-09-30T13:34:56.725Z,21.40
2022-09-30T13:37:39.458Z,21.70
2022-09-30T13:40:32.715Z,21.50
2022-09-30T13:43:10.062Z,21.40
2022-09-30T13:45:39.701Z,20.80
2022-09-30T13:48:12.272Z,19.90
2022-09-30T13:50:46.649Z,20.50
2022-09-30T13:53:22.329Z,20.60
2022-09-30T13:55:55.345Z,20.80
2022-09-30T13:58:47.546Z,20.70
2022-09-30T14:01:25.590Z,20.50
2022-09-30T14:04:04.417Z,20.50
2022-09-30T14:06:35.926Z,20.60
2022-09-30T14:09:20.884Z,20.50
2022-09-30T14:12:01.972Z,20.70
2022-09-30T14:14:44.535Z,20.30
2022-09-30T14:17:30.039Z,20.40
2022-09-30T14:20:05.372Z,20.20
2022-09-30T14:22:41.366Z,20.40
2022-09-30T14:25:17.561Z,20.00
2022-09-30T14:28:04.865Z,20.50
2022-09-30T14:30:35.645Z,20.30
2022-09-30T14:33:07.095Z,20.10
2022-09-30T14:35:36.092Z,19.70
2022-09-30T14:38:04.821Z,20.30
2022-09-30T14:40:33.882Z,20.80
2022-09-30T14:43:05.493Z,20.60
2022-09-30T14:45:34.315Z,20.60
2022-09-30T14:48:04.323Z,20.60
2022-09-30T14:50:37.349Z,20.80
2022-09-30T14:53:05.453Z,20.80
2022-09-30T14:55:34.874Z,21.10
2022-09-30T14:58:28.717Z,20.90
2022-09-30T15:01:05.788Z,21.20
2022-09-30T15:03:35.572Z,21.00
2022-09-30T15:06:04.059Z,20.70
2022-09-30T15:08:32.191Z,20.90
2022-09-30T15:11:00.255Z,21.10
2022-09-30T15:13:31.255Z,20.80
2022-09-30T15:16:00.049Z,20.30
2022-09-30T15:18:33.210Z,20.20
2022-09-30T15:21:10.134Z,19.90
2022-09-30T15:23:39.571Z,20.10
2022-09-30T15:26:07.939Z,20.30
2022-09-30T15:28:37.776Z,20.40
2022-09-30T15:31:06.131Z,20.30
2022-09-30T15:33:34.412Z,20.70
2022-09-30T15:36:03.840Z,20.70
2022-09-30T15:38:32.017Z,20.70
2022-09-30T15:41:03.332Z,20.30
2022-09-30T15:43:34.424Z,20.30
2022-09-30T15:46:21.498Z,20.20
2022-09-30T15:48:50.014Z,20.70
2022-09-30T15:51:32.542Z,20.50
2022-09-30T15:54:01.685Z,20.60
2022-09-30T15:56:35.845Z,20.30
2022-09-30T15:59:06.113Z,20.40
2022-09-30T16:01:37.078Z,20.30
2022-09-30T16:04:09.647Z,20.20
2022-09-30T16:06:43.557Z,20.20
2022-09-30T16:09:21.055Z,19.90
2022-09-30T16:11:54.145Z,20.30
2022-09-30T16:14:23.862Z,20.30
2022-09-30T16:16:57.466Z,20.20
2022-09-30T16:19:26.355Z,20.20
2022-09-30T16:21:54.923Z,20.00
2022-09-30T16:24:42.960Z,19.90
2022-09-30T16:27:29.982Z,19.50
2022-09-30T16:30:01.229Z,19.70
2022-09-30T16:32:32.574Z,19.60
2022-09-30T16:35:00.648Z,19.50
2022-09-30T16:37:28.709Z,19.50
2022-09-30T16:39:57.680Z,19.20
2022-09-30T16:42:25.791Z,19.30
2022-09-30T16:44:53.944Z,18.90
2022-09-30T16:47:22.122Z,18.90
2022-09-30T16:49:52.224Z,19.00
2022-09-30T16:52:20.303Z,18.70
2022-09-30T16:54:48.428Z,18.20
2022-09-30T16:57:17.135Z,18.20
2022-09-30T16:59:45.300Z,18.20
2022-09-30T17:02:16.939Z,17.80
2022-09-30T17:04:46.861Z,17.80
2022-09-30T17:07:16.287Z,17.70
2022-09-30T17:09:44.760Z,17.70
2022-09-30T17:12:13.351Z,17.50
2022-09-30T17:14:43.396Z,17.40
2022-09-30T17:17:13.790Z,17.30
2022-09-30T17:19:42.343Z,17.20
2022-09-30T17:22:10.402Z,17.10
2022-09-30T17:24:39.924Z,16.90
2022-09-30T17:27:07.989Z,16.70
2022-09-30T17:29:41.820Z,16.70
2022-09-30T17:32:10.470Z,16.70
2022-09-30T17:34:38.640Z,16.60
2022-09-30T17:39:41.261Z,16.30
2022-09-30T17:42:29.363Z,16.30
2022-09-30T17:44:57.504Z,16.00
2022-09-30T17:47:26.813Z,16.10
2022-09-30T17:49:55.056Z,15.90
2022-09-30T17:52:23.830Z,15.80
2022-09-30T17:54:53.647Z,15.70
2022-09-30T17:57:21.759Z,15.80
2022-09-30T17:59:49.851Z,15.80
2022-09-30T18:02:18.310Z,15.80
2022-09-30T18:04:46.479Z,15.80
2022-09-30T18:07:14.580Z,15.70
2022-09-30T18:09:42.667Z,15.50
2022-09-30T18:12:12.314Z,15.60
2022-09-30T18:14:40.438Z,15.20
2022-09-30T18:17:08.476Z,15.50
2022-09-30T18:19:37.078Z,15.30
2022-09-30T18:22:05.107Z,15.10
2022-09-30T18:24:50.691Z,15.00
2022-09-30T18:27:22.517Z,15.00
2022-09-30T18:29:50.626Z,15.20
2022-09-30T18:32:18.663Z,15.20
2022-09-30T18:34:46.729Z,15.20
2022-09-30T18:37:14.771Z,15.00
2022-09-30T18:39:42.861Z,14.80
2022-09-30T18:42:10.928Z,14.70
2022-09-30T18:44:40.623Z,14.80
2022-09-30T18:47:08.679Z,14.50
2022-09-30T18:49:36.747Z,14.60
2022-09-30T18:52:05.166Z,14.70
2022-09-30T18:54:33.780Z,14.60
2022-09-30T18:57:01.849Z,14.70
2022-09-30T18:59:29.968Z,14.20
2022-09-30T19:02:00.438Z,14.50
2022-09-30T19:04:29.153Z,14.50
2022-09-30T19:06:57.187Z,14.50
2022-09-30T19:09:26.724Z,14.40
2022-09-30T19:11:55.561Z,14.20
2022-09-30T19:14:24.213Z,14.10
2022-09-30T19:16:52.526Z,14.00
2022-09-30T19:19:22.902Z,13.90
2022-09-30T19:21:51.268Z,13.90
2022-09-30T19:24:21.897Z,13.80
2022-09-30T19:26:52.903Z,13.90
2022-09-30T19:29:20.987Z,13.90
2022-09-30T19:31:49.141Z,13.70
2022-09-30T19:34:28.269Z,13.50
2022-09-30T19:37:00.885Z,13.40
2022-09-30T19:39:40.040Z,13.20
2022-09-30T19:42:10.441Z,13.50
2022-09-30T19:44:38.552Z,13.50
2022-09-30T19:47:06.857Z,13.40
2022-09-30T19:49:34.948Z,13.30
2022-09-30T19:52:14.031Z,13.30
2022-09-30T19:54:47.167Z,13.30
2022-09-30T19:57:15.408Z,13.30
2022-09-30T19:59:43.489Z,13.00
2022-09-30T20:02:12.092Z,13.20
2022-09-30T20:04:41.171Z,12.80
2022-09-30T20:07:10.605Z,13.00
2022-09-30T20:09:38.708Z,13.10
2022-09-30T20:12:07.811Z,13.20
2022-09-30T20:14:53.260Z,13.00
2022-09-30T20:17:22.531Z,13.40
2022-09-30T20:20:10.692Z,12.90
2022-09-30T20:22:40.150Z,13.20
2022-09-30T20:25:09.095Z,13.00
2022-09-30T20:27:37.236Z,12.90
2022-09-30T20:30:06.563Z,12.90
2022-09-30T20:32:34.660Z,12.90
2022-09-30T20:35:02.751Z,13.20
2022-09-30T20:37:30.868Z,13.10
2022-09-30T20:40:00.313Z,13.10
2022-09-30T20:42:30.890Z,13.30
2022-09-30T20:45:02.881Z,13.20
2022-09-30T20:47:30.935Z,13.00
2022-09-30T20:49:59.575Z,13.10
2022-09-30T20:52:28.814Z,12.80
2022-09-30T20:55:00.422Z,12.90
2022-09-30T20:57:31.033Z,12.90
2022-09-30T21:00:00.066Z,12.70
2022-09-30T21:02:29.030Z,12.80
2022-09-30T21:04:57.774Z,12.70
2022-09-30T21:07:26.119Z,12.60
2022-09-30T21:09:54.926Z,12.50
2022-09-30T21:12:23.079Z,12.80
2022-09-30T21:14:52.920Z,12.80
2022-09-30T21:17:21.221Z,12.70
2022-09-30T21:19:49.300Z,12.80
2022-09-30T21:22:17.686Z,12.90
2022-09-30T21:24:47.805Z,12.90
2022-09-30T21:27:16.145Z,12.90
2022-09-30T21:29:44.287Z,12.70
2022-09-30T21:32:13.997Z,12.70
2022-09-30T21:34:42.116Z,13.00
2022-09-30T21:37:10.275Z,13.20
2022-09-30T21:39:38.514Z,13.20
2022-09-30T21:42:06.805Z,12.90
2022-09-30T21:44:34.901Z,12.90
2022-09-30T21:47:03.094Z,12.80
2022-09-30T21:49:32.578Z,12.80
2022-09-30T21:52:01.146Z,13.00
2022-09-30T21:54:29.655Z,12.70
2022-09-30T21:56:57.814Z,12.90
2022-09-30T21:59:26.228Z,12.80
2022-09-30T22:01:54.323Z,12.80
2022-09-30T22:04:22.430Z,12.80
2022-09-30T22:06:51.914Z,13.10
2022-09-30T22:09:20.485Z,12.90
2022-09-30T22:11:49.628Z,12.60
2022-09-30T22:14:18.036Z,12.70
2022-09-30T22:16:46.159Z,12.80
2022-09-30T22:19:14.652Z,12.70
2022-09-30T22:21:42.723Z,12.80
2022-09-30T22:24:12.261Z,12.50
2022-09-30T22:26:41.825Z,12.60
2022-09-30T22:29:11.552Z,12.70
2022-09-30T22:31:39.834Z,12.80
2022-09-30T22:34:26.127Z,12.80
2022-09-30T22:37:10.885Z,13.00
2022-09-30T22:39:40.355Z,12.70
2022-09-30T22:42:08.458Z,12.90
2022-09-30T22:44:37.365Z,12.70
2022-09-30T22:47:05.709Z,12.90
2022-09-30T22:49:33.847Z,12.80
2022-09-30T22:52:03.739Z,13.00
2022-09-30T22:54:31.962Z,13.00
2022-09-30T22:57:01.424Z,13.00
2022-09-30T22:59:30.017Z,13.10
2022-09-30T23:01:58.295Z,13.20
2022-09-30T23:04:26.853Z,13.20
2022-09-30T23:06:55.746Z,13.30
2022-09-30T23:09:23.850Z,13.30
2022-09-30T23:11:54.189Z,13.30
2022-09-30T23:14:23.790Z,13.20
2022-09-30T23:16:51.997Z,13.30
2022-09-30T23:19:20.274Z,13.30
2022-09-30T23:21:48.364Z,13.50
2022-09-30T23:24:16.451Z,13.60
2022-09-30T23:26:44.684Z,13.70
2022-09-30T23:29:13.531Z,13.50
2022-09-30T23:31:43.065Z,13.10
2022-09-30T23:34:11.216Z,13.30
2022-09-30T23:36:39.258Z,13.60
2022-09-30T23:39:09.379Z,13.20
2022-09-30T23:41:53.665Z,13.40
2022-09-30T23:47:37.430Z,13.50
2022-09-30T23:50:08.081Z,13.40
2022-09-30T23:52:36.170Z,13.50
2022-09-30T23:55:05.772Z,13.50
2022-09-30T23:57:38.119Z,13.30
